sensor_id;sensor_type;location;lat;lon;timestamp;P1;durP1;ratioP1;P2;durP2;ratioP2
57093;SDS011;42970;50.996;3.706;2022-07-29T00:02:07;10.88;;;2.22;;
57093;SDS011;42970;50.996;3.706;2022-07-29T00:04:35;4.55;;;2.25;;
57093;SDS011;42970;50.996;3.706;2022-07-29T00:07:02;5.50;;;2.05;;
57093;SDS011;42970;50.996;3.706;2022-07-29T00:09:28;9.02;;;2.88;;
57093;SDS011;42970;50.996;3.706;2022-07-29T00:11:54;6.43;;;2.13;;
57093;SDS011;42970;50.996;3.706;2022-07-29T00:14:23;4.82;;;2.65;;
57093;SDS011;42970;50.996;3.706;2022-07-29T00:16:49;5.63;;;2.15;;
57093;SDS011;42970;50.996;3.706;2022-07-29T00:19:15;3.90;;;2.30;;
57093;SDS011;42970;50.996;3.706;2022-07-29T00:21:41;8.57;;;1.95;;
57093;SDS011;42970;50.996;3.706;2022-07-29T00:24:07;6.25;;;2.30;;
57093;SDS011;42970;50.996;3.706;2022-07-29T00:26:33;8.68;;;2.17;;
57093;SDS011;42970;50.996;3.706;2022-07-29T00:28:59;16.40;;;2.03;;
57093;SDS011;42970;50.996;3.706;2022-07-29T00:31:25;4.30;;;2.22;;
57093;SDS011;42970;50.996;3.706;2022-07-29T00:33:51;4.00;;;1.95;;
57093;SDS011;42970;50.996;3.706;2022-07-29T00:36:16;5.65;;;2.10;;
57093;SDS011;42970;50.996;3.706;2022-07-29T00:38:42;6.60;;;2.28;;
57093;SDS011;42970;50.996;3.706;2022-07-29T00:41:10;3.58;;;1.80;;
57093;SDS011;42970;50.996;3.706;2022-07-29T00:43:36;10.52;;;2.65;;
57093;SDS011;42970;50.996;3.706;2022-07-29T00:46:02;4.78;;;2.28;;
57093;SDS011;42970;50.996;3.706;2022-07-29T00:48:27;6.40;;;2.50;;
57093;SDS011;42970;50.996;3.706;2022-07-29T00:50:53;4.63;;;2.20;;
57093;SDS011;42970;50.996;3.706;2022-07-29T00:53:20;3.83;;;2.00;;
57093;SDS011;42970;50.996;3.706;2022-07-29T00:55:46;9.05;;;2.50;;
57093;SDS011;42970;50.996;3.706;2022-07-29T00:58:12;4.85;;;1.77;;
57093;SDS011;42970;50.996;3.706;2022-07-29T01:00:38;7.10;;;2.20;;
57093;SDS011;42970;50.996;3.706;2022-07-29T01:03:06;4.20;;;2.30;;
57093;SDS011;42970;50.996;3.706;2022-07-29T01:05:32;3.50;;;1.90;;
57093;SDS011;42970;50.996;3.706;2022-07-29T01:07:58;5.18;;;2.33;;
57093;SDS011;42970;50.996;3.706;2022-07-29T01:10:24;3.15;;;1.80;;
57093;SDS011;42970;50.996;3.706;2022-07-29T01:12:51;3.72;;;2.17;;
57093;SDS011;42970;50.996;3.706;2022-07-29T01:15:19;4.10;;;2.15;;
57093;SDS011;42970;50.996;3.706;2022-07-29T01:23:40;5.75;;;2.47;;
57093;SDS011;42970;50.996;3.706;2022-07-29T01:26:20;4.35;;;2.35;;
57093;SDS011;42970;50.996;3.706;2022-07-29T01:31:45;4.82;;;2.30;;
57093;SDS011;42970;50.996;3.706;2022-07-29T01:34:24;6.18;;;3.00;;
57093;SDS011;42970;50.996;3.706;2022-07-29T01:36:55;5.35;;;2.05;;
57093;SDS011;42970;50.996;3.706;2022-07-29T01:39:32;3.95;;;2.15;;
57093;SDS011;42970;50.996;3.706;2022-07-29T01:42:05;6.00;;;2.33;;
57093;SDS011;42970;50.996;3.706;2022-07-29T01:44:37;7.85;;;2.08;;
57093;SDS011;42970;50.996;3.706;2022-07-29T01:47:12;5.50;;;2.13;;
57093;SDS011;42970;50.996;3.706;2022-07-29T01:49:41;3.55;;;2.10;;
57093;SDS011;42970;50.996;3.706;2022-07-29T01:52:19;5.88;;;2.40;;
57093;SDS011;42970;50.996;3.706;2022-07-29T01:54:49;3.67;;;2.50;;
57093;SDS011;42970;50.996;3.706;2022-07-29T01:57:21;8.25;;;2.42;;
57093;SDS011;42970;50.996;3.706;2022-07-29T01:59:52;6.85;;;2.20;;
57093;SDS011;42970;50.996;3.706;2022-07-29T02:02:19;6.53;;;2.42;;
57093;SDS011;42970;50.996;3.706;2022-07-29T02:04:47;5.35;;;2.20;;
57093;SDS011;42970;50.996;3.706;2022-07-29T02:07:15;4.78;;;2.35;;
57093;SDS011;42970;50.996;3.706;2022-07-29T02:09:44;5.20;;;2.28;;
57093;SDS011;42970;50.996;3.706;2022-07-29T02:12:12;15.13;;;3.10;;
57093;SDS011;42970;50.996;3.706;2022-07-29T02:14:42;6.85;;;3.38;;
57093;SDS011;42970;50.996;3.706;2022-07-29T02:17:22;6.30;;;3.08;;
57093;SDS011;42970;50.996;3.706;2022-07-29T02:19:52;8.57;;;3.20;;
57093;SDS011;42970;50.996;3.706;2022-07-29T02:22:21;14.95;;;4.15;;
57093;SDS011;42970;50.996;3.706;2022-07-29T02:24:49;12.15;;;4.07;;
57093;SDS011;42970;50.996;3.706;2022-07-29T02:27:17;23.70;;;3.92;;
57093;SDS011;42970;50.996;3.706;2022-07-29T02:29:45;13.32;;;4.93;;
57093;SDS011;42970;50.996;3.706;2022-07-29T02:32:12;9.68;;;4.30;;
57093;SDS011;42970;50.996;3.706;2022-07-29T02:34:40;7.43;;;3.78;;
57093;SDS011;42970;50.996;3.706;2022-07-29T02:37:10;5.80;;;2.60;;
57093;SDS011;42970;50.996;3.706;2022-07-29T02:39:37;5.88;;;2.95;;
57093;SDS011;42970;50.996;3.706;2022-07-29T02:42:05;9.57;;;2.40;;
57093;SDS011;42970;50.996;3.706;2022-07-29T02:44:33;10.90;;;2.80;;
57093;SDS011;42970;50.996;3.706;2022-07-29T02:47:04;7.80;;;2.80;;
57093;SDS011;42970;50.996;3.706;2022-07-29T02:49:47;7.18;;;3.55;;
57093;SDS011;42970;50.996;3.706;2022-07-29T02:57:20;9.77;;;4.07;;
57093;SDS011;42970;50.996;3.706;2022-07-29T02:59:53;11.35;;;5.03;;
57093;SDS011;42970;50.996;3.706;2022-07-29T03:02:24;23.50;;;5.00;;
57093;SDS011;42970;50.996;3.706;2022-07-29T03:04:52;20.48;;;4.57;;
57093;SDS011;42970;50.996;3.706;2022-07-29T03:07:20;11.68;;;3.58;;
57093;SDS011;42970;50.996;3.706;2022-07-29T03:09:46;13.27;;;3.92;;
57093;SDS011;42970;50.996;3.706;2022-07-29T03:12:12;7.80;;;2.67;;
57093;SDS011;42970;50.996;3.706;2022-07-29T03:14:39;4.93;;;2.97;;
57093;SDS011;42970;50.996;3.706;2022-07-29T03:17:06;5.43;;;2.45;;
57093;SDS011;42970;50.996;3.706;2022-07-29T03:19:32;6.88;;;2.42;;
57093;SDS011;42970;50.996;3.706;2022-07-29T03:21:59;9.57;;;3.08;;
57093;SDS011;42970;50.996;3.706;2022-07-29T03:24:31;10.65;;;3.60;;
57093;SDS011;42970;50.996;3.706;2022-07-29T03:26:59;5.05;;;2.70;;
57093;SDS011;42970;50.996;3.706;2022-07-29T03:29:25;6.47;;;3.30;;
57093;SDS011;42970;50.996;3.706;2022-07-29T03:31:52;12.13;;;3.97;;
57093;SDS011;42970;50.996;3.706;2022-07-29T03:34:17;9.15;;;3.90;;
57093;SDS011;42970;50.996;3.706;2022-07-29T03:36:43;10.38;;;3.45;;
57093;SDS011;42970;50.996;3.706;2022-07-29T03:39:09;4.35;;;2.80;;
57093;SDS011;42970;50.996;3.706;2022-07-29T03:41:37;5.00;;;2.47;;
57093;SDS011;42970;50.996;3.706;2022-07-29T03:44:04;10.63;;;3.13;;
57093;SDS011;42970;50.996;3.706;2022-07-29T03:46:32;3.53;;;2.30;;
57093;SDS011;42970;50.996;3.706;2022-07-29T03:49:00;10.00;;;2.78;;
57093;SDS011;42970;50.996;3.706;2022-07-29T03:51:29;4.25;;;2.67;;
57093;SDS011;42970;50.996;3.706;2022-07-29T03:53:55;5.97;;;2.50;;
57093;SDS011;42970;50.996;3.706;2022-07-29T03:56:22;11.88;;;2.63;;
57093;SDS011;42970;50.996;3.706;2022-07-29T03:58:52;12.85;;;2.40;;
57093;SDS011;42970;50.996;3.706;2022-07-29T04:01:19;7.78;;;2.63;;
57093;SDS011;42970;50.996;3.706;2022-07-29T04:03:45;5.47;;;2.50;;
57093;SDS011;42970;50.996;3.706;2022-07-29T04:06:11;7.10;;;2.85;;
57093;SDS011;42970;50.996;3.706;2022-07-29T04:08:37;4.55;;;2.72;;
57093;SDS011;42970;50.996;3.706;2022-07-29T04:11:03;6.57;;;2.45;;
57093;SDS011;42970;50.996;3.706;2022-07-29T04:13:31;3.03;;;2.35;;
57093;SDS011;42970;50.996;3.706;2022-07-29T04:15:58;10.05;;;3.13;;
57093;SDS011;42970;50.996;3.706;2022-07-29T04:18:24;5.18;;;2.60;;
57093;SDS011;42970;50.996;3.706;2022-07-29T04:20:49;14.07;;;2.80;;
57093;SDS011;42970;50.996;3.706;2022-07-29T04:23:15;6.55;;;2.55;;
57093;SDS011;42970;50.996;3.706;2022-07-29T04:25:40;3.92;;;2.17;;
57093;SDS011;42970;50.996;3.706;2022-07-29T04:28:07;3.95;;;2.45;;
57093;SDS011;42970;50.996;3.706;2022-07-29T04:30:34;7.63;;;2.25;;
57093;SDS011;42970;50.996;3.706;2022-07-29T04:33:01;6.28;;;2.80;;
57093;SDS011;42970;50.996;3.706;2022-07-29T04:35:33;5.43;;;2.83;;
57093;SDS011;42970;50.996;3.706;2022-07-29T04:38:00;4.20;;;2.60;;
57093;SDS011;42970;50.996;3.706;2022-07-29T04:40:25;8.32;;;2.90;;
57093;SDS011;42970;50.996;3.706;2022-07-29T04:42:51;7.15;;;2.55;;
57093;SDS011;42970;50.996;3.706;2022-07-29T04:45:16;6.05;;;2.70;;
57093;SDS011;42970;50.996;3.706;2022-07-29T04:47:42;11.82;;;2.95;;
57093;SDS011;42970;50.996;3.706;2022-07-29T04:50:08;2.63;;;2.05;;
57093;SDS011;42970;50.996;3.706;2022-07-29T04:52:34;4.97;;;2.80;;
57093;SDS011;42970;50.996;3.706;2022-07-29T04:55:04;8.75;;;3.05;;
57093;SDS011;42970;50.996;3.706;2022-07-29T04:57:30;5.35;;;2.85;;
57093;SDS011;42970;50.996;3.706;2022-07-29T04:59:55;9.50;;;3.08;;
57093;SDS011;42970;50.996;3.706;2022-07-29T05:02:21;4.60;;;2.88;;
57093;SDS011;42970;50.996;3.706;2022-07-29T05:04:47;4.30;;;2.78;;
57093;SDS011;42970;50.996;3.706;2022-07-29T05:07:13;4.85;;;2.55;;
57093;SDS011;42970;50.996;3.706;2022-07-29T05:09:39;4.00;;;2.60;;
57093;SDS011;42970;50.996;3.706;2022-07-29T05:12:05;14.10;;;3.03;;
57093;SDS011;42970;50.996;3.706;2022-07-29T05:14:31;7.18;;;2.83;;
57093;SDS011;42970;50.996;3.706;2022-07-29T05:16:56;9.65;;;3.10;;
57093;SDS011;42970;50.996;3.706;2022-07-29T05:19:22;4.65;;;2.40;;
57093;SDS011;42970;50.996;3.706;2022-07-29T05:21:48;13.02;;;3.28;;
57093;SDS011;42970;50.996;3.706;2022-07-29T05:24:14;5.05;;;2.85;;
57093;SDS011;42970;50.996;3.706;2022-07-29T05:26:39;4.15;;;2.67;;
57093;SDS011;42970;50.996;3.706;2022-07-29T05:29:05;8.80;;;2.90;;
57093;SDS011;42970;50.996;3.706;2022-07-29T05:31:31;6.70;;;2.60;;
57093;SDS011;42970;50.996;3.706;2022-07-29T05:33:56;4.50;;;2.90;;
57093;SDS011;42970;50.996;3.706;2022-07-29T05:36:22;5.38;;;2.92;;
57093;SDS011;42970;50.996;3.706;2022-07-29T05:38:47;8.85;;;3.03;;
57093;SDS011;42970;50.996;3.706;2022-07-29T05:41:12;6.88;;;3.90;;
57093;SDS011;42970;50.996;3.706;2022-07-29T05:43:38;6.20;;;3.47;;
57093;SDS011;42970;50.996;3.706;2022-07-29T05:46:03;5.13;;;3.55;;
57093;SDS011;42970;50.996;3.706;2022-07-29T05:48:29;5.15;;;3.35;;
57093;SDS011;42970;50.996;3.706;2022-07-29T05:50:55;4.95;;;3.63;;
57093;SDS011;42970;50.996;3.706;2022-07-29T05:53:20;7.00;;;3.95;;
57093;SDS011;42970;50.996;3.706;2022-07-29T05:55:47;5.82;;;4.28;;
57093;SDS011;42970;50.996;3.706;2022-07-29T05:58:12;9.27;;;4.75;;
57093;SDS011;42970;50.996;3.706;2022-07-29T06:00:38;8.30;;;4.63;;
57093;SDS011;42970;50.996;3.706;2022-07-29T06:03:03;10.68;;;4.93;;
57093;SDS011;42970;50.996;3.706;2022-07-29T06:05:28;8.75;;;5.13;;
57093;SDS011;42970;50.996;3.706;2022-07-29T06:07:54;11.30;;;4.80;;
57093;SDS011;42970;50.996;3.706;2022-07-29T06:10:20;10.60;;;4.90;;
57093;SDS011;42970;50.996;3.706;2022-07-29T06:12:45;19.05;;;6.22;;
57093;SDS011;42970;50.996;3.706;2022-07-29T06:15:11;14.60;;;5.07;;
57093;SDS011;42970;50.996;3.706;2022-07-29T06:17:36;15.57;;;6.13;;
57093;SDS011;42970;50.996;3.706;2022-07-29T06:20:02;12.80;;;6.30;;
57093;SDS011;42970;50.996;3.706;2022-07-29T06:22:28;13.85;;;5.28;;
57093;SDS011;42970;50.996;3.706;2022-07-29T06:24:54;9.23;;;5.38;;
57093;SDS011;42970;50.996;3.706;2022-07-29T06:27:19;14.70;;;6.07;;
57093;SDS011;42970;50.996;3.706;2022-07-29T06:29:45;9.68;;;6.03;;
57093;SDS011;42970;50.996;3.706;2022-07-29T06:32:10;10.05;;;5.45;;
57093;SDS011;42970;50.996;3.706;2022-07-29T06:34:36;13.10;;;6.90;;
57093;SDS011;42970;50.996;3.706;2022-07-29T06:37:07;15.80;;;6.10;;
57093;SDS011;42970;50.996;3.706;2022-07-29T06:39:36;12.73;;;6.45;;
57093;SDS011;42970;50.996;3.706;2022-07-29T06:42:05;12.07;;;6.03;;
57093;SDS011;42970;50.996;3.706;2022-07-29T06:44:32;21.13;;;6.18;;
57093;SDS011;42970;50.996;3.706;2022-07-29T06:47:00;12.55;;;5.28;;
57093;SDS011;42970;50.996;3.706;2022-07-29T06:49:26;11.63;;;5.45;;
57093;SDS011;42970;50.996;3.706;2022-07-29T06:51:52;8.27;;;5.30;;
57093;SDS011;42970;50.996;3.706;2022-07-29T06:54:18;8.27;;;4.78;;
57093;SDS011;42970;50.996;3.706;2022-07-29T06:56:44;12.00;;;4.30;;
57093;SDS011;42970;50.996;3.706;2022-07-29T06:59:11;9.02;;;5.43;;
57093;SDS011;42970;50.996;3.706;2022-07-29T07:01:41;7.35;;;3.75;;
57093;SDS011;42970;50.996;3.706;2022-07-29T07:04:08;7.03;;;3.60;;
57093;SDS011;42970;50.996;3.706;2022-07-29T07:06:34;10.65;;;4.05;;
57093;SDS011;42970;50.996;3.706;2022-07-29T07:08:59;8.70;;;4.15;;
57093;SDS011;42970;50.996;3.706;2022-07-29T07:11:25;6.13;;;3.67;;
57093;SDS011;42970;50.996;3.706;2022-07-29T07:13:50;14.02;;;4.03;;
57093;SDS011;42970;50.996;3.706;2022-07-29T07:16:16;10.50;;;3.50;;
57093;SDS011;42970;50.996;3.706;2022-07-29T07:18:41;7.28;;;3.00;;
57093;SDS011;42970;50.996;3.706;2022-07-29T07:21:07;15.02;;;3.85;;
57093;SDS011;42970;50.996;3.706;2022-07-29T07:23:32;7.20;;;3.72;;
57093;SDS011;42970;50.996;3.706;2022-07-29T07:25:58;11.48;;;3.63;;
57093;SDS011;42970;50.996;3.706;2022-07-29T07:28:23;5.78;;;3.70;;
57093;SDS011;42970;50.996;3.706;2022-07-29T07:30:48;5.63;;;3.47;;
57093;SDS011;42970;50.996;3.706;2022-07-29T07:33:14;12.23;;;3.92;;
57093;SDS011;42970;50.996;3.706;2022-07-29T07:35:40;7.32;;;3.10;;
57093;SDS011;42970;50.996;3.706;2022-07-29T07:38:06;12.93;;;3.45;;
57093;SDS011;42970;50.996;3.706;2022-07-29T07:40:32;5.28;;;3.10;;
57093;SDS011;42970;50.996;3.706;2022-07-29T07:42:57;7.95;;;3.65;;
57093;SDS011;42970;50.996;3.706;2022-07-29T07:45:23;19.52;;;3.80;;
57093;SDS011;42970;50.996;3.706;2022-07-29T07:47:48;5.90;;;3.35;;
57093;SDS011;42970;50.996;3.706;2022-07-29T07:50:14;5.10;;;3.50;;
57093;SDS011;42970;50.996;3.706;2022-07-29T07:52:49;5.97;;;3.40;;
57093;SDS011;42970;50.996;3.706;2022-07-29T07:55:17;8.13;;;3.78;;
57093;SDS011;42970;50.996;3.706;2022-07-29T07:57:43;9.05;;;3.63;;
57093;SDS011;42970;50.996;3.706;2022-07-29T08:00:09;8.13;;;3.92;;
57093;SDS011;42970;50.996;3.706;2022-07-29T08:02:37;8.77;;;4.40;;
57093;SDS011;42970;50.996;3.706;2022-07-29T08:05:03;10.35;;;3.88;;
57093;SDS011;42970;50.996;3.706;2022-07-29T08:07:28;10.30;;;5.40;;
57093;SDS011;42970;50.996;3.706;2022-07-29T08:09:54;14.77;;;4.35;;
57093;SDS011;42970;50.996;3.706;2022-07-29T08:12:19;23.75;;;5.72;;
57093;SDS011;42970;50.996;3.706;2022-07-29T08:14:44;10.80;;;6.00;;
57093;SDS011;42970;50.996;3.706;2022-07-29T08:17:10;11.15;;;6.00;;
57093;SDS011;42970;50.996;3.706;2022-07-29T08:22:02;11.95;;;6.35;;
57093;SDS011;42970;50.996;3.706;2022-07-29T08:24:27;11.43;;;5.85;;
57093;SDS011;42970;50.996;3.706;2022-07-29T08:27:08;8.85;;;4.50;;
57093;SDS011;42970;50.996;3.706;2022-07-29T08:29:38;9.68;;;5.47;;
57093;SDS011;42970;50.996;3.706;2022-07-29T08:32:04;17.33;;;6.68;;
57093;SDS011;42970;50.996;3.706;2022-07-29T08:34:30;14.48;;;5.93;;
57093;SDS011;42970;50.996;3.706;2022-07-29T08:36:55;14.70;;;6.95;;
57093;SDS011;42970;50.996;3.706;2022-07-29T08:39:22;17.33;;;7.63;;
57093;SDS011;42970;50.996;3.706;2022-07-29T08:41:47;10.48;;;6.38;;
57093;SDS011;42970;50.996;3.706;2022-07-29T08:44:15;15.05;;;4.93;;
57093;SDS011;42970;50.996;3.706;2022-07-29T08:46:42;10.82;;;4.90;;
57093;SDS011;42970;50.996;3.706;2022-07-29T08:49:08;7.90;;;4.32;;
57093;SDS011;42970;50.996;3.706;2022-07-29T08:51:34;8.40;;;3.20;;
57093;SDS011;42970;50.996;3.706;2022-07-29T08:54:01;6.75;;;3.35;;
57093;SDS011;42970;50.996;3.706;2022-07-29T08:56:27;5.25;;;2.30;;
57093;SDS011;42970;50.996;3.706;2022-07-29T08:58:54;3.17;;;1.73;;
57093;SDS011;42970;50.996;3.706;2022-07-29T09:01:22;4.45;;;2.60;;
57093;SDS011;42970;50.996;3.706;2022-07-29T09:03:50;7.57;;;2.95;;
57093;SDS011;42970;50.996;3.706;2022-07-29T09:06:20;8.63;;;3.13;;
57093;SDS011;42970;50.996;3.706;2022-07-29T09:08:47;5.18;;;2.97;;
57093;SDS011;42970;50.996;3.706;2022-07-29T09:11:14;10.60;;;3.05;;
57093;SDS011;42970;50.996;3.706;2022-07-29T09:13:40;14.82;;;4.90;;
57093;SDS011;42970;50.996;3.706;2022-07-29T09:16:05;10.55;;;3.50;;
57093;SDS011;42970;50.996;3.706;2022-07-29T09:21:08;7.43;;;3.72;;
57093;SDS011;42970;50.996;3.706;2022-07-29T09:26:32;5.95;;;3.97;;
57093;SDS011;42970;50.996;3.706;2022-07-29T09:28:59;8.43;;;4.35;;
57093;SDS011;42970;50.996;3.706;2022-07-29T09:32:08;9.63;;;3.42;;
57093;SDS011;42970;50.996;3.706;2022-07-29T09:34:15;8.98;;;4.28;;
57093;SDS011;42970;50.996;3.706;2022-07-29T09:36:46;6.75;;;3.70;;
57093;SDS011;42970;50.996;3.706;2022-07-29T09:39:13;10.48;;;3.75;;
57093;SDS011;42970;50.996;3.706;2022-07-29T09:41:51;9.48;;;3.30;;
57093;SDS011;42970;50.996;3.706;2022-07-29T09:44:18;5.93;;;2.90;;
57093;SDS011;42970;50.996;3.706;2022-07-29T09:49:23;3.80;;;2.70;;
57093;SDS011;42970;50.996;3.706;2022-07-29T09:52:23;7.90;;;3.10;;
57093;SDS011;42970;50.996;3.706;2022-07-29T09:54:41;7.13;;;2.80;;
57093;SDS011;42970;50.996;3.706;2022-07-29T09:57:21;5.85;;;1.98;;
57093;SDS011;42970;50.996;3.706;2022-07-29T10:02:45;8.85;;;2.10;;
57093;SDS011;42970;50.996;3.706;2022-07-29T10:05:21;4.93;;;2.40;;
57093;SDS011;42970;50.996;3.706;2022-07-29T10:07:55;5.60;;;2.65;;
57093;SDS011;42970;50.996;3.706;2022-07-29T10:10:23;12.43;;;2.25;;
57093;SDS011;42970;50.996;3.706;2022-07-29T10:12:50;5.10;;;2.33;;
57093;SDS011;42970;50.996;3.706;2022-07-29T10:15:21;6.05;;;2.30;;
57093;SDS011;42970;50.996;3.706;2022-07-29T10:17:49;3.17;;;2.13;;
57093;SDS011;42970;50.996;3.706;2022-07-29T10:20:15;1.40;;;1.13;;
57093;SDS011;42970;50.996;3.706;2022-07-29T10:22:42;3.67;;;2.13;;
57093;SDS011;42970;50.996;3.706;2022-07-29T10:25:09;4.35;;;2.45;;
57093;SDS011;42970;50.996;3.706;2022-07-29T10:27:35;3.58;;;2.22;;
57093;SDS011;42970;50.996;3.706;2022-07-29T10:30:01;3.67;;;2.47;;
57093;SDS011;42970;50.996;3.706;2022-07-29T10:35:27;7.50;;;2.50;;
57093;SDS011;42970;50.996;3.706;2022-07-29T10:38:10;4.72;;;2.65;;
57093;SDS011;42970;50.996;3.706;2022-07-29T10:46:36;9.20;;;2.65;;
57093;SDS011;42970;50.996;3.706;2022-07-29T10:54:19;13.55;;;2.17;;
57093;SDS011;42970;50.996;3.706;2022-07-29T10:57:16;7.43;;;2.08;;
57093;SDS011;42970;50.996;3.706;2022-07-29T10:59:47;4.05;;;2.55;;
57093;SDS011;42970;50.996;3.706;2022-07-29T11:05:08;10.45;;;2.35;;
57093;SDS011;42970;50.996;3.706;2022-07-29T11:10:37;6.35;;;1.95;;
57093;SDS011;42970;50.996;3.706;2022-07-29T11:13:02;2.95;;;1.73;;
57093;SDS011;42970;50.996;3.706;2022-07-29T11:15:28;2.47;;;1.55;;
57093;SDS011;42970;50.996;3.706;2022-07-29T11:28:39;5.90;;;1.73;;
57093;SDS011;42970;50.996;3.706;2022-07-29T11:31:13;6.70;;;1.73;;
57093;SDS011;42970;50.996;3.706;2022-07-29T11:33:41;4.10;;;1.60;;
57093;SDS011;42970;50.996;3.706;2022-07-29T11:36:13;4.57;;;1.60;;
57093;SDS011;42970;50.996;3.706;2022-07-29T11:38:39;3.85;;;1.80;;
57093;SDS011;42970;50.996;3.706;2022-07-29T11:43:54;2.90;;;2.00;;
57093;SDS011;42970;50.996;3.706;2022-07-29T11:49:06;2.70;;;1.67;;
57093;SDS011;42970;50.996;3.706;2022-07-29T11:51:34;3.55;;;2.00;;
57093;SDS011;42970;50.996;3.706;2022-07-29T11:54:04;5.03;;;1.58;;
57093;SDS011;42970;50.996;3.706;2022-07-29T11:56:33;6.68;;;2.08;;
57093;SDS011;42970;50.996;3.706;2022-07-29T11:59:04;4.43;;;1.92;;
57093;SDS011;42970;50.996;3.706;2022-07-29T12:01:31;3.63;;;1.83;;
57093;SDS011;42970;50.996;3.706;2022-07-29T12:04:06;8.88;;;2.42;;
57093;SDS011;42970;50.996;3.706;2022-07-29T12:06:35;5.93;;;2.03;;
57093;SDS011;42970;50.996;3.706;2022-07-29T12:09:00;2.17;;;1.55;;
57093;SDS011;42970;50.996;3.706;2022-07-29T12:11:31;3.45;;;1.83;;
57093;SDS011;42970;50.996;3.706;2022-07-29T12:13:56;3.20;;;1.63;;
57093;SDS011;42970;50.996;3.706;2022-07-29T12:16:22;3.22;;;1.63;;
57093;SDS011;42970;50.996;3.706;2022-07-29T12:18:55;3.92;;;1.77;;
57093;SDS011;42970;50.996;3.706;2022-07-29T12:21:24;8.55;;;2.17;;
57093;SDS011;42970;50.996;3.706;2022-07-29T12:23:53;4.22;;;2.30;;
57093;SDS011;42970;50.996;3.706;2022-07-29T12:26:19;7.53;;;1.85;;
57093;SDS011;42970;50.996;3.706;2022-07-29T12:28:45;6.55;;;1.80;;
57093;SDS011;42970;50.996;3.706;2022-07-29T12:31:14;4.00;;;1.90;;
57093;SDS011;42970;50.996;3.706;2022-07-29T12:33:41;6.03;;;2.13;;
57093;SDS011;42970;50.996;3.706;2022-07-29T12:36:07;10.65;;;2.00;;
57093;SDS011;42970;50.996;3.706;2022-07-29T12:38:36;3.63;;;2.00;;
57093;SDS011;42970;50.996;3.706;2022-07-29T12:41:05;5.15;;;1.70;;
57093;SDS011;42970;50.996;3.706;2022-07-29T12:43:31;5.53;;;2.58;;
57093;SDS011;42970;50.996;3.706;2022-07-29T12:45:56;4.03;;;1.90;;
57093;SDS011;42970;50.996;3.706;2022-07-29T12:48:35;27.55;;;4.95;;
57093;SDS011;42970;50.996;3.706;2022-07-29T12:51:02;3.53;;;1.67;;
57093;SDS011;42970;50.996;3.706;2022-07-29T12:53:28;9.13;;;2.05;;
57093;SDS011;42970;50.996;3.706;2022-07-29T12:55:54;4.95;;;3.08;;
57093;SDS011;42970;50.996;3.706;2022-07-29T13:03:52;4.22;;;1.73;;
57093;SDS011;42970;50.996;3.706;2022-07-29T13:09:10;5.93;;;1.73;;
57093;SDS011;42970;50.996;3.706;2022-07-29T13:11:47;6.13;;;1.88;;
57093;SDS011;42970;50.996;3.706;2022-07-29T13:14:29;2.83;;;1.55;;
57093;SDS011;42970;50.996;3.706;2022-07-29T13:17:04;8.93;;;1.90;;
57093;SDS011;42970;50.996;3.706;2022-07-29T13:22:00;7.93;;;2.00;;
57093;SDS011;42970;50.996;3.706;2022-07-29T13:24:26;2.42;;;1.67;;
57093;SDS011;42970;50.996;3.706;2022-07-29T13:26:51;2.65;;;1.48;;
57093;SDS011;42970;50.996;3.706;2022-07-29T13:29:17;4.03;;;2.08;;
57093;SDS011;42970;50.996;3.706;2022-07-29T13:31:42;1.98;;;1.52;;
57093;SDS011;42970;50.996;3.706;2022-07-29T13:34:08;4.57;;;1.95;;
57093;SDS011;42970;50.996;3.706;2022-07-29T13:36:33;5.13;;;1.80;;
57093;SDS011;42970;50.996;3.706;2022-07-29T13:38:58;7.80;;;1.80;;
57093;SDS011;42970;50.996;3.706;2022-07-29T13:41:26;3.85;;;1.67;;
57093;SDS011;42970;50.996;3.706;2022-07-29T13:43:51;5.20;;;2.13;;
57093;SDS011;42970;50.996;3.706;2022-07-29T13:46:16;2.55;;;1.80;;
57093;SDS011;42970;50.996;3.706;2022-07-29T13:48:42;8.45;;;2.15;;
57093;SDS011;42970;50.996;3.706;2022-07-29T13:51:07;6.05;;;2.50;;
57093;SDS011;42970;50.996;3.706;2022-07-29T13:53:33;3.85;;;1.70;;
57093;SDS011;42970;50.996;3.706;2022-07-29T13:55:58;3.95;;;2.22;;
57093;SDS011;42970;50.996;3.706;2022-07-29T13:58:24;4.60;;;1.80;;
57093;SDS011;42970;50.996;3.706;2022-07-29T14:00:49;5.85;;;1.98;;
57093;SDS011;42970;50.996;3.706;2022-07-29T14:03:15;2.72;;;1.90;;
57093;SDS011;42970;50.996;3.706;2022-07-29T14:05:40;5.43;;;2.13;;
57093;SDS011;42970;50.996;3.706;2022-07-29T14:08:06;8.27;;;2.03;;
57093;SDS011;42970;50.996;3.706;2022-07-29T14:10:31;4.25;;;2.13;;
57093;SDS011;42970;50.996;3.706;2022-07-29T14:12:56;4.32;;;1.90;;
57093;SDS011;42970;50.996;3.706;2022-07-29T14:15:22;10.23;;;2.28;;
57093;SDS011;42970;50.996;3.706;2022-07-29T14:17:48;4.50;;;1.73;;
57093;SDS011;42970;50.996;3.706;2022-07-29T14:20:13;4.70;;;1.67;;
57093;SDS011;42970;50.996;3.706;2022-07-29T14:22:40;4.00;;;1.80;;
57093;SDS011;42970;50.996;3.706;2022-07-29T14:25:07;5.68;;;1.90;;
57093;SDS011;42970;50.996;3.706;2022-07-29T14:27:33;3.25;;;1.52;;
57093;SDS011;42970;50.996;3.706;2022-07-29T14:29:58;8.13;;;2.05;;
57093;SDS011;42970;50.996;3.706;2022-07-29T14:32:24;3.38;;;1.77;;
57093;SDS011;42970;50.996;3.706;2022-07-29T14:34:49;6.20;;;2.10;;
57093;SDS011;42970;50.996;3.706;2022-07-29T14:37:14;4.75;;;2.28;;
57093;SDS011;42970;50.996;3.706;2022-07-29T14:39:40;3.72;;;2.38;;
57093;SDS011;42970;50.996;3.706;2022-07-29T14:42:07;7.00;;;1.80;;
57093;SDS011;42970;50.996;3.706;2022-07-29T14:44:33;9.50;;;1.75;;
57093;SDS011;42970;50.996;3.706;2022-07-29T14:46:58;6.43;;;2.22;;
57093;SDS011;42970;50.996;3.706;2022-07-29T14:49:25;6.80;;;1.88;;
57093;SDS011;42970;50.996;3.706;2022-07-29T14:51:51;6.20;;;1.58;;
57093;SDS011;42970;50.996;3.706;2022-07-29T14:54:16;4.22;;;1.70;;
57093;SDS011;42970;50.996;3.706;2022-07-29T14:56:42;5.60;;;1.50;;
57093;SDS011;42970;50.996;3.706;2022-07-29T14:59:07;4.68;;;2.03;;
57093;SDS011;42970;50.996;3.706;2022-07-29T15:01:33;7.70;;;1.50;;
57093;SDS011;42970;50.996;3.706;2022-07-29T15:03:58;6.25;;;2.35;;
57093;SDS011;42970;50.996;3.706;2022-07-29T15:06:24;3.40;;;1.67;;
57093;SDS011;42970;50.996;3.706;2022-07-29T15:08:49;4.00;;;1.73;;
57093;SDS011;42970;50.996;3.706;2022-07-29T15:11:14;3.60;;;1.50;;
57093;SDS011;42970;50.996;3.706;2022-07-29T15:13:40;2.60;;;1.58;;
57093;SDS011;42970;50.996;3.706;2022-07-29T15:16:05;5.00;;;1.60;;
57093;SDS011;42970;50.996;3.706;2022-07-29T15:18:31;2.55;;;1.25;;
57093;SDS011;42970;50.996;3.706;2022-07-29T15:20:56;3.92;;;1.55;;
57093;SDS011;42970;50.996;3.706;2022-07-29T15:23:22;3.80;;;2.15;;
57093;SDS011;42970;50.996;3.706;2022-07-29T15:25:47;3.05;;;1.65;;
57093;SDS011;42970;50.996;3.706;2022-07-29T15:28:13;2.05;;;1.40;;
57093;SDS011;42970;50.996;3.706;2022-07-29T15:30:38;7.70;;;1.83;;
57093;SDS011;42970;50.996;3.706;2022-07-29T15:33:07;3.20;;;2.28;;
57093;SDS011;42970;50.996;3.706;2022-07-29T15:35:34;3.47;;;1.52;;
57093;SDS011;42970;50.996;3.706;2022-07-29T15:38:01;4.28;;;1.75;;
57093;SDS011;42970;50.996;3.706;2022-07-29T15:40:26;8.23;;;1.80;;
57093;SDS011;42970;50.996;3.706;2022-07-29T15:42:52;3.90;;;1.45;;
57093;SDS011;42970;50.996;3.706;2022-07-29T15:45:17;6.63;;;1.70;;
57093;SDS011;42970;50.996;3.706;2022-07-29T15:47:42;4.35;;;1.90;;
57093;SDS011;42970;50.996;3.706;2022-07-29T15:50:08;6.70;;;1.80;;
57093;SDS011;42970;50.996;3.706;2022-07-29T15:52:38;8.98;;;2.63;;
57093;SDS011;42970;50.996;3.706;2022-07-29T15:55:04;7.82;;;1.80;;
57093;SDS011;42970;50.996;3.706;2022-07-29T15:57:29;6.95;;;2.03;;
57093;SDS011;42970;50.996;3.706;2022-07-29T15:59:55;2.58;;;1.58;;
57093;SDS011;42970;50.996;3.706;2022-07-29T16:02:21;5.78;;;1.60;;